createdAt,value
2018-08-25T00:00:59.519Z,55.93
2018-08-25T00:03:28.413Z,56.80
2018-08-25T00:05:57.296Z,55.74
2018-08-25T00:08:26.225Z,56.60
2018-08-25T00:10:55.070Z,56.60
2018-08-25T00:13:24.130Z,56.27
2018-08-25T00:15:52.985Z,55.65
2018-08-25T00:18:21.912Z,56.16
2018-08-25T00:20:51.825Z,56.97
2018-08-25T00:23:20.747Z,56.35
2018-08-25T00:25:49.787Z,57.08
2018-08-25T00:28:18.698Z,56.70
2018-08-25T00:30:54.175Z,57.98
2018-08-25T00:33:23.427Z,57.02
2018-08-25T00:35:52.340Z,56.38
2018-08-25T00:38:22.238Z,57.47
2018-08-25T00:40:51.124Z,57.70
2018-08-25T00:43:20.036Z,58.25
2018-08-25T00:45:48.920Z,57.45
2018-08-25T00:48:17.751Z,57.74
2018-08-25T00:50:46.685Z,57.34
2018-08-25T00:53:15.593Z,57.88
2018-08-25T00:55:44.501Z,57.91
2018-08-25T00:58:13.344Z,57.91
2018-08-25T01:00:42.427Z,58.17
2018-08-25T01:03:11.347Z,57.54
2018-08-25T01:05:40.259Z,57.97
2018-08-25T01:08:09.185Z,58.54
2018-08-25T01:10:39.080Z,59.55
2018-08-25T01:13:08.606Z,58.62
2018-08-25T01:15:37.548Z,58.97
2018-08-25T01:18:06.635Z,59.54
2018-08-25T01:20:35.528Z,58.75
2018-08-25T01:23:04.436Z,59.56
2018-08-25T01:25:33.321Z,59.65
2018-08-25T01:28:02.227Z,58.20
2018-08-25T01:30:32.105Z,58.52
2018-08-25T01:33:01.111Z,59.05
2018-08-25T01:35:31.034Z,59.56
2018-08-25T01:37:59.935Z,60.00
2018-08-25T01:40:28.798Z,59.95
2018-08-25T01:42:57.696Z,59.51
2018-08-25T01:45:26.581Z,59.35
2018-08-25T01:47:55.479Z,59.36
2018-08-25T01:50:24.352Z,58.69
2018-08-25T01:52:53.239Z,59.56
2018-08-25T01:55:22.264Z,59.32
2018-08-25T01:57:51.138Z,59.62
2018-08-25T02:00:20.043Z,60.01
2018-08-25T02:02:50.125Z,59.74
2018-08-25T02:05:18.919Z,60.48
2018-08-25T02:07:47.793Z,59.73
2018-08-25T02:10:16.714Z,60.28
2018-08-25T02:12:45.587Z,59.90
2018-08-25T02:15:14.445Z,60.57
2018-08-25T02:17:43.327Z,60.68
2018-08-25T02:20:12.360Z,60.79
2018-08-25T02:22:41.244Z,61.05
2018-08-25T02:25:10.140Z,64.00
2018-08-25T02:27:39.008Z,68.80
2018-08-25T02:30:07.968Z,68.37
2018-08-25T02:32:36.806Z,70.55
2018-08-25T02:35:05.705Z,74.19
2018-08-25T02:37:34.596Z,74.53
2018-08-25T02:40:03.509Z,76.86
2018-08-25T02:42:33.245Z,75.52
2018-08-25T02:45:02.153Z,75.88
2018-08-25T02:47:31.038Z,80.45
2018-08-25T02:49:59.889Z,80.60
2018-08-25T02:52:28.749Z,82.74
2018-08-25T02:54:57.643Z,85.05
2018-08-25T02:57:26.537Z,85.21
2018-08-25T02:59:55.472Z,86.39
2018-08-25T03:02:24.317Z,87.47
2018-08-25T03:04:53.306Z,86.58
2018-08-25T03:07:22.208Z,86.45
2018-08-25T03:09:51.116Z,89.78
2018-08-25T03:12:20.026Z,89.49
2018-08-25T03:14:49.934Z,87.42
2018-08-25T03:17:18.816Z,88.79
2018-08-25T03:19:47.728Z,87.33
2018-08-25T03:22:17.664Z,89.58
2018-08-25T03:24:46.560Z,90.99
2018-08-25T03:27:15.473Z,91.54
2018-08-25T03:29:44.337Z,90.65
2018-08-25T03:32:13.211Z,91.18
2018-08-25T03:34:42.124Z,92.08
2018-08-25T03:37:11.217Z,92.11
2018-08-25T03:39:40.097Z,91.86
2018-08-25T03:42:08.981Z,92.95
2018-08-25T03:44:38.018Z,93.18
2018-08-25T03:47:06.950Z,92.79
2018-08-25T03:49:35.823Z,92.88
2018-08-25T03:52:04.766Z,93.19
2018-08-25T03:54:33.676Z,93.34
2018-08-25T03:57:02.638Z,92.31
2018-08-25T03:59:31.549Z,93.47
2018-08-25T04:02:00.428Z,93.39
2018-08-25T04:04:29.299Z,91.76
2018-08-25T04:06:58.170Z,91.93
2018-08-25T04:09:27.054Z,91.89
2018-08-25T04:11:55.983Z,91.95
2018-08-25T04:14:25.003Z,91.21
2018-08-25T04:16:53.870Z,92.17
2018-08-25T04:19:22.771Z,92.83
2018-08-25T04:21:51.691Z,94.45
2018-08-25T04:24:20.597Z,93.44
2018-08-25T04:26:49.547Z,93.21
2018-08-25T04:29:18.450Z,94.36
2018-08-25T04:31:47.360Z,93.67
2018-08-25T04:34:16.299Z,92.43
2018-08-25T04:36:45.176Z,94.12
2018-08-25T04:39:14.047Z,92.86
2018-08-25T04:41:42.971Z,92.90
2018-08-25T04:44:11.878Z,93.46
2018-08-25T04:46:40.866Z,92.26
2018-08-25T04:49:09.744Z,91.75
2018-08-25T04:51:38.610Z,91.63
2018-08-25T04:54:07.575Z,92.27
2018-08-25T04:56:36.432Z,92.38
2018-08-25T04:59:05.507Z,93.16
2018-08-25T05:01:34.413Z,93.17
2018-08-25T05:04:03.292Z,93.72
2018-08-25T05:06:32.161Z,92.89
2018-08-25T05:09:01.228Z,92.83
2018-08-25T05:11:30.100Z,91.93
2018-08-25T05:13:59.095Z,92.45
2018-08-25T05:16:28.788Z,92.02
2018-08-25T05:18:57.763Z,91.96
2018-08-25T05:21:26.661Z,92.05
2018-08-25T05:23:55.521Z,91.68
2018-08-25T05:26:24.395Z,89.68
2018-08-25T05:28:53.254Z,89.75
2018-08-25T05:31:22.230Z,90.49
2018-08-25T05:33:51.089Z,89.54
2018-08-25T05:36:19.996Z,89.84
2018-08-25T05:38:48.857Z,90.20
2018-08-25T05:41:17.845Z,88.80
2018-08-25T05:43:46.708Z,90.74
2018-08-25T05:46:15.601Z,91.17
2018-08-25T05:48:44.562Z,90.16
2018-08-25T05:51:14.470Z,90.55
2018-08-25T05:53:43.369Z,90.78
2018-08-25T05:56:12.333Z,88.92
2018-08-25T05:58:41.232Z,88.55
2018-08-25T06:01:10.295Z,89.11
2018-08-25T06:03:39.301Z,88.59
2018-08-25T06:06:08.223Z,89.73
2018-08-25T06:08:37.126Z,87.91
2018-08-25T06:11:07.237Z,87.65
2018-08-25T06:13:36.284Z,88.15
2018-08-25T06:16:05.285Z,88.20
2018-08-25T06:18:34.226Z,88.37
2018-08-25T06:21:04.163Z,88.09
2018-08-25T06:23:33.118Z,87.97
2018-08-25T06:26:02.025Z,87.51
2018-08-25T06:28:30.944Z,88.54
2018-08-25T06:30:59.929Z,88.17
2018-08-25T06:33:29.901Z,86.63
2018-08-25T06:35:58.833Z,86.45
2018-08-25T06:38:28.732Z,86.79
2018-08-25T06:40:58.902Z,87.49
2018-08-25T06:43:27.846Z,86.71
2018-08-25T06:46:01.998Z,86.15
2018-08-25T06:48:30.958Z,87.18
2018-08-25T06:50:59.963Z,85.62
2018-08-25T06:53:29.922Z,86.62
2018-08-25T06:55:58.835Z,86.76
2018-08-25T06:58:27.760Z,86.29
2018-08-25T07:00:57.671Z,85.85
2018-08-25T07:03:26.670Z,87.83
2018-08-25T07:05:56.651Z,86.70
2018-08-25T07:08:25.509Z,86.44
2018-08-25T07:10:54.485Z,85.24
2018-08-25T07:13:23.517Z,83.83
2018-08-25T07:15:53.519Z,85.19
2018-08-25T07:18:23.507Z,84.19
2018-08-25T07:20:52.501Z,81.95
2018-08-25T07:23:21.488Z,83.58
2018-08-25T07:25:50.498Z,84.69
2018-08-25T07:28:19.379Z,83.05
2018-08-25T07:30:49.389Z,82.05
2018-08-25T07:33:18.327Z,82.06
2018-08-25T07:35:47.299Z,81.74
2018-08-25T07:38:16.319Z,80.40
2018-08-25T07:40:45.232Z,79.65
2018-08-25T07:43:14.176Z,79.02
2018-08-25T07:45:43.108Z,78.78
2018-08-25T07:48:12.011Z,78.58
2018-08-25T07:50:41.947Z,79.09
2018-08-25T07:53:10.947Z,77.55
2018-08-25T07:55:40.003Z,75.98
2018-08-25T07:58:08.831Z,77.73
2018-08-25T08:00:37.915Z,77.57
2018-08-25T08:03:07.071Z,76.04
2018-08-25T08:05:36.273Z,76.77
2018-08-25T08:08:06.193Z,75.86
2018-08-25T08:10:35.198Z,75.49
2018-08-25T08:13:05.187Z,75.28
2018-08-25T08:15:34.087Z,75.51
2018-08-25T08:18:03.147Z,72.12
2018-08-25T08:20:32.034Z,73.63
2018-08-25T08:23:00.924Z,73.21
2018-08-25T08:25:29.919Z,74.31
2018-08-25T08:27:59.032Z,73.83
2018-08-25T08:30:27.960Z,74.33
2018-08-25T08:32:56.968Z,72.50
2018-08-25T08:35:25.880Z,73.07
2018-08-25T08:37:54.893Z,73.57
2018-08-25T08:40:23.881Z,73.11
2018-08-25T08:42:52.835Z,72.05
2018-08-25T08:45:21.871Z,71.16
2018-08-25T08:47:50.847Z,71.18
2018-08-25T08:50:19.813Z,71.06
2018-08-25T08:52:48.724Z,71.71
2018-08-25T08:55:17.846Z,70.50
2018-08-25T08:57:47.856Z,70.71
2018-08-25T09:00:18.043Z,70.18
2018-08-25T09:02:47.311Z,70.97
2018-08-25T09:05:16.216Z,69.93
2018-08-25T09:07:45.160Z,68.84
2018-08-25T09:10:14.071Z,69.32
2018-08-25T09:12:44.042Z,69.70
2018-08-25T09:15:13.133Z,68.10
2018-08-25T09:17:42.006Z,66.76
2018-08-25T09:20:11.083Z,67.61
2018-08-25T09:22:39.945Z,67.65
2018-08-25T09:25:08.828Z,67.39
2018-08-25T09:27:37.915Z,66.77
2018-08-25T09:30:07.349Z,65.95
2018-08-25T09:32:36.404Z,65.60
2018-08-25T09:35:05.414Z,66.39
2018-08-25T09:37:34.480Z,66.49
2018-08-25T09:40:03.365Z,65.90
2018-08-25T09:42:32.633Z,67.87
2018-08-25T09:45:01.857Z,67.08
2018-08-25T09:47:31.145Z,66.06
2018-08-25T09:50:00.084Z,67.35
2018-08-25T09:52:29.002Z,66.22
2018-08-25T09:54:57.940Z,64.91
2018-08-25T09:57:26.822Z,65.58
2018-08-25T09:59:56.948Z,65.29
2018-08-25T10:02:26.842Z,65.82
2018-08-25T10:04:55.751Z,66.24
2018-08-25T10:07:24.649Z,65.66
2018-08-25T10:09:55.625Z,67.13
2018-08-25T10:12:25.638Z,65.42
2018-08-25T10:14:54.589Z,65.00
2018-08-25T10:17:24.522Z,64.56
2018-08-25T10:19:53.488Z,65.25
2018-08-25T10:22:22.531Z,64.49
2018-08-25T10:24:51.472Z,65.73
2018-08-25T10:27:20.352Z,64.48
2018-08-25T10:29:50.336Z,64.27
2018-08-25T10:32:19.317Z,64.35
2018-08-25T10:34:48.300Z,65.44
2018-08-25T10:37:17.279Z,65.82
2018-08-25T10:39:46.180Z,64.12
2018-08-25T10:42:15.239Z,64.82
2018-08-25T10:44:44.049Z,64.64
2018-08-25T10:47:12.917Z,64.70
2018-08-25T10:49:41.859Z,64.91
2018-08-25T10:52:10.854Z,65.77
2018-08-25T10:54:39.792Z,64.17
2018-08-25T10:57:08.729Z,64.03
2018-08-25T10:59:37.600Z,64.66
2018-08-25T11:02:07.590Z,64.12
2018-08-25T11:04:37.497Z,63.46
2018-08-25T11:07:06.415Z,63.31
2018-08-25T11:09:35.306Z,62.25
2018-08-25T11:12:04.208Z,62.25
2018-08-25T11:14:33.097Z,62.24
2018-08-25T11:17:01.988Z,62.54
2018-08-25T11:19:31.956Z,61.76
2018-08-25T11:22:01.964Z,61.40
2018-08-25T11:24:30.881Z,61.58
2018-08-25T11:26:59.898Z,61.12
2018-08-25T11:29:28.830Z,59.27
2018-08-25T11:31:57.827Z,59.08
2018-08-25T11:34:26.813Z,58.02
2018-08-25T11:36:55.808Z,59.50
2018-08-25T11:39:24.713Z,60.37
2018-08-25T11:41:53.711Z,61.08
2018-08-25T11:44:22.623Z,61.05
2018-08-25T11:46:51.631Z,61.92
2018-08-25T11:49:20.564Z,60.63
2018-08-25T11:51:49.423Z,60.24
2018-08-25T11:54:19.365Z,61.10
2018-08-25T11:56:48.353Z,62.85
2018-08-25T11:59:17.363Z,63.89
2018-08-25T12:01:46.347Z,63.36
2018-08-25T12:04:15.369Z,63.73
2018-08-25T12:06:44.264Z,61.13
2018-08-25T12:09:13.388Z,60.79
2018-08-25T12:11:42.326Z,59.11
2018-08-25T12:14:11.335Z,59.60
2018-08-25T12:16:40.358Z,58.85
2018-08-25T12:19:09.368Z,59.15
2018-08-25T12:21:38.352Z,60.91
2018-08-25T12:24:08.357Z,59.71
2018-08-25T12:26:37.339Z,60.47
2018-08-25T12:29:06.323Z,60.15
2018-08-25T12:31:35.214Z,59.60
2018-08-25T12:34:04.154Z,61.17
2018-08-25T12:36:34.070Z,63.43
2018-08-25T12:39:06.239Z,67.77
2018-08-25T12:41:35.063Z,66.75
2018-08-25T12:44:04.085Z,65.12
2018-08-25T12:46:32.996Z,62.58
2018-08-25T12:49:01.911Z,61.05
2018-08-25T12:51:31.172Z,60.50
2018-08-25T12:54:00.134Z,57.46
2018-08-25T12:56:29.111Z,56.97
2018-08-25T12:58:58.006Z,56.08
2018-08-25T13:01:26.958Z,56.32
2018-08-25T13:03:55.889Z,55.96
2018-08-25T13:06:24.861Z,55.46
2018-08-25T13:08:54.768Z,54.80
2018-08-25T13:11:24.686Z,54.27
2018-08-25T13:13:53.715Z,53.82
2018-08-25T13:16:22.837Z,54.45
2018-08-25T13:18:51.853Z,54.41
2018-08-25T13:21:20.836Z,53.96
2018-08-25T13:23:49.767Z,53.63
2018-08-25T13:26:18.602Z,54.09
2018-08-25T13:28:47.514Z,56.23
2018-08-25T13:31:16.415Z,55.07
2018-08-25T13:33:45.315Z,55.34
2018-08-25T13:36:14.203Z,55.95
2018-08-25T13:38:44.138Z,55.66
2018-08-25T13:41:14.059Z,56.18
2018-08-25T13:43:42.997Z,54.81
2018-08-25T13:46:12.107Z,53.78
2018-08-25T13:48:40.972Z,53.94
2018-08-25T13:51:09.925Z,53.60
2018-08-25T13:53:38.707Z,51.79
2018-08-25T13:56:07.592Z,51.54
2018-08-25T13:58:37.539Z,53.40
2018-08-25T14:01:06.522Z,53.49
2018-08-25T14:03:35.423Z,53.31
2018-08-25T14:06:04.364Z,52.39
2018-08-25T14:08:33.333Z,54.18
2018-08-25T14:11:02.653Z,53.74
2018-08-25T14:13:31.588Z,54.23
2018-08-25T14:16:01.563Z,52.63
2018-08-25T14:18:30.466Z,53.02
2018-08-25T14:21:00.741Z,52.98
2018-08-25T14:23:29.736Z,52.30
2018-08-25T14:25:58.594Z,51.38
2018-08-25T14:28:27.653Z,50.31
2018-08-25T14:30:56.579Z,52.13
2018-08-25T14:33:25.640Z,51.36
2018-08-25T14:35:55.602Z,52.07
2018-08-25T14:38:24.550Z,51.15
2018-08-25T14:40:53.425Z,53.49
2018-08-25T14:43:22.367Z,53.58
2018-08-25T14:45:51.395Z,52.37
2018-08-25T14:48:20.337Z,53.93
2018-08-25T14:50:50.255Z,54.67
2018-08-25T14:53:19.169Z,53.94
2018-08-25T14:55:48.231Z,54.61
2018-08-25T14:58:19.182Z,52.63
2018-08-25T15:00:49.178Z,53.54
2018-08-25T15:03:18.020Z,54.18
2018-08-25T15:05:46.885Z,54.58
2018-08-25T15:08:15.888Z,54.15
2018-08-25T15:10:44.772Z,55.28
2018-08-25T15:13:13.796Z,55.51
2018-08-25T15:15:42.746Z,55.89
2018-08-25T15:18:11.641Z,55.51
2018-08-25T15:20:42.597Z,54.74
2018-08-25T15:23:11.631Z,56.19
2018-08-25T15:25:41.558Z,56.05
2018-08-25T15:28:10.459Z,56.87
2018-08-25T15:30:39.547Z,56.71
2018-08-25T15:33:08.442Z,57.99
2018-08-25T15:35:37.362Z,57.68
2018-08-25T15:38:06.347Z,56.51
2018-08-25T15:40:36.266Z,56.48
2018-08-25T15:43:06.220Z,54.66
2018-08-25T15:45:36.208Z,54.06
2018-08-25T15:48:05.473Z,53.73
2018-08-25T15:50:34.397Z,53.41
2018-08-25T15:53:04.365Z,54.70
2018-08-25T15:55:33.296Z,55.24
2018-08-25T15:58:03.321Z,55.63
2018-08-25T16:00:33.187Z,56.63
2018-08-25T16:03:02.114Z,56.87
2018-08-25T16:05:33.100Z,57.38
2018-08-25T16:08:02.117Z,57.68
2018-08-25T16:10:31.057Z,56.33
2018-08-25T16:13:00.014Z,57.69
2018-08-25T16:15:28.981Z,56.51
2018-08-25T16:17:57.932Z,57.32
2018-08-25T16:20:26.799Z,57.59
2018-08-25T16:22:55.646Z,57.00
2018-08-25T16:25:24.561Z,55.91
2018-08-25T16:27:53.754Z,56.37
2018-08-25T16:30:22.671Z,55.46
2018-08-25T16:32:51.568Z,55.69
2018-08-25T16:35:20.498Z,55.57
2018-08-25T16:37:49.400Z,56.26
2018-08-25T16:40:18.848Z,57.00
2018-08-25T16:42:47.751Z,56.90
2018-08-25T16:45:16.624Z,57.32
2018-08-25T16:47:45.519Z,56.88
2018-08-25T16:50:14.431Z,56.37
2018-08-25T16:52:44.408Z,57.81
2018-08-25T16:55:13.344Z,57.73
2018-08-25T16:57:42.207Z,59.96
2018-08-25T17:00:11.129Z,59.27
2018-08-25T17:02:40.008Z,59.49
2018-08-25T17:05:08.879Z,60.08
2018-08-25T17:07:37.766Z,60.44
2018-08-25T17:10:06.738Z,61.56
2018-08-25T17:12:35.597Z,61.28
2018-08-25T17:15:04.596Z,61.01
2018-08-25T17:17:33.548Z,61.88
2018-08-25T17:20:02.485Z,61.79
2018-08-25T17:22:31.656Z,61.23
2018-08-25T17:25:00.543Z,63.09
2018-08-25T17:27:29.417Z,63.28
2018-08-25T17:29:58.596Z,58.57
2018-08-25T17:32:27.859Z,59.22
2018-08-25T17:34:56.810Z,60.73
2018-08-25T17:37:25.732Z,60.57
2018-08-25T17:39:54.623Z,62.19
2018-08-25T17:42:23.529Z,62.08
2018-08-25T17:44:52.514Z,61.81
2018-08-25T17:47:21.601Z,63.95
2018-08-25T17:49:50.566Z,60.81
2018-08-25T17:52:19.508Z,63.00
2018-08-25T17:54:48.681Z,62.29
2018-08-25T17:57:17.752Z,63.04
2018-08-25T17:59:47.596Z,61.70
2018-08-25T18:02:16.839Z,61.49
2018-08-25T18:04:46.921Z,60.96
2018-08-25T18:07:15.975Z,61.18
2018-08-25T18:09:46.047Z,61.76
2018-08-25T18:12:15.001Z,63.24
2018-08-25T18:14:44.256Z,63.24
2018-08-25T18:17:13.222Z,63.06
2018-08-25T18:19:42.149Z,63.99
2018-08-25T18:22:11.094Z,62.40
2018-08-25T18:24:41.972Z,62.52
2018-08-25T18:27:11.584Z,63.26
2018-08-25T18:29:41.891Z,62.93
2018-08-25T18:32:10.938Z,60.77
2018-08-25T18:34:39.877Z,60.36
2018-08-25T18:37:08.976Z,60.89
2018-08-25T18:39:38.029Z,59.04
2018-08-25T18:42:07.188Z,59.06
2018-08-25T18:44:36.143Z,58.56
2018-08-25T18:47:05.564Z,59.51
2018-08-25T18:49:34.529Z,59.33
2018-08-25T18:52:05.454Z,61.34
2018-08-25T18:54:34.504Z,60.79
2018-08-25T18:57:03.423Z,60.80
2018-08-25T18:59:32.387Z,60.71
2018-08-25T19:02:01.777Z,60.72
2018-08-25T19:04:30.773Z,62.13
2018-08-25T19:06:59.683Z,61.76
2018-08-25T19:09:28.619Z,62.09
2018-08-25T19:11:58.859Z,61.84
2018-08-25T19:14:28.862Z,63.03
2018-08-25T19:16:57.874Z,62.47
2018-08-25T19:19:26.882Z,63.28
2018-08-25T19:21:56.888Z,62.77
2018-08-25T19:24:26.956Z,63.45
2018-08-25T19:26:56.049Z,63.89
2018-08-25T19:29:24.970Z,63.74
2018-08-25T19:31:55.916Z,64.21
2018-08-25T19:34:24.955Z,64.37
2018-08-25T19:36:54.967Z,65.06
2018-08-25T19:39:24.092Z,65.22
2018-08-25T19:41:54.015Z,65.61
2018-08-25T19:44:23.078Z,65.29
2018-08-25T19:46:53.972Z,65.50
2018-08-25T19:49:23.113Z,66.73
2018-08-25T19:51:52.103Z,66.68
2018-08-25T19:54:21.006Z,64.48
2018-08-25T19:56:50.157Z,65.62
2018-08-25T19:59:20.232Z,64.44
2018-08-25T20:01:49.321Z,63.91
2018-08-25T20:04:18.301Z,64.84
2018-08-25T20:06:47.300Z,64.35
2018-08-25T20:09:16.302Z,65.88
2018-08-25T20:11:46.012Z,65.78
2018-08-25T20:14:16.038Z,66.83
2018-08-25T20:16:45.020Z,66.99
2018-08-25T20:19:14.427Z,67.49
2018-08-25T20:21:45.255Z,68.01
2018-08-25T20:24:14.718Z,68.72
2018-08-25T20:26:44.617Z,69.03
2018-08-25T20:29:14.520Z,68.49
2018-08-25T20:31:44.522Z,69.14
2018-08-25T20:34:13.567Z,67.27
2018-08-25T20:36:42.538Z,67.66
2018-08-25T20:39:11.691Z,66.97
2018-08-25T20:41:40.675Z,68.04
2018-08-25T20:44:09.685Z,67.38
2018-08-25T20:46:38.605Z,67.73
2018-08-25T20:49:07.625Z,67.58
2018-08-25T20:51:36.620Z,66.55
2018-08-25T20:54:05.756Z,66.92
2018-08-25T20:56:34.695Z,67.18
2018-08-25T20:59:04.627Z,66.66
2018-08-25T21:01:33.732Z,67.58
2018-08-25T21:04:03.756Z,67.41
2018-08-25T21:06:34.115Z,67.73
2018-08-25T21:09:03.202Z,68.42
2018-08-25T21:11:32.345Z,68.46
2018-08-25T21:14:02.426Z,67.41
2018-08-25T21:16:31.341Z,68.68
2018-08-25T21:19:01.259Z,66.78
2018-08-25T21:21:30.251Z,66.26
2018-08-25T21:24:00.203Z,65.99
2018-08-25T21:26:29.139Z,65.66
2018-08-25T21:28:59.157Z,67.02
2018-08-25T21:31:28.063Z,67.05
2018-08-25T21:33:57.189Z,67.04
2018-08-25T21:36:26.173Z,66.40
2018-08-25T21:38:55.140Z,67.10
2018-08-25T21:41:24.105Z,67.27
2018-08-25T21:43:53.112Z,66.72
2018-08-25T21:46:22.136Z,67.32
2018-08-25T21:48:51.141Z,66.89
2018-08-25T21:51:20.126Z,69.18
2018-08-25T21:53:49.192Z,70.26
2018-08-25T21:56:19.191Z,70.81
2018-08-25T21:58:48.104Z,71.24
2018-08-25T22:01:17.199Z,70.61
2018-08-25T22:03:47.668Z,71.77
2018-08-25T22:06:17.641Z,72.19
2018-08-25T22:08:47.623Z,72.54
2018-08-25T22:11:16.679Z,72.78
2018-08-25T22:13:45.644Z,73.64
2018-08-25T22:16:15.619Z,73.52
2018-08-25T22:18:44.575Z,72.97
2018-08-25T22:21:13.638Z,73.23
2018-08-25T22:23:42.659Z,73.13
2018-08-25T22:26:11.517Z,73.54
2018-08-25T22:28:40.413Z,73.57
2018-08-25T22:31:09.317Z,74.85
2018-08-25T22:33:39.298Z,75.01
2018-08-25T22:36:08.237Z,74.29
2018-08-25T22:38:37.388Z,74.32
2018-08-25T22:41:06.353Z,74.77
2018-08-25T22:43:35.318Z,74.34
2018-08-25T22:46:04.313Z,74.40
2018-08-25T22:48:33.211Z,74.64
2018-08-25T22:51:02.204Z,74.77
2018-08-25T22:53:31.409Z,75.38
2018-08-25T22:56:00.401Z,74.90
2018-08-25T22:58:30.267Z,74.45
2018-08-25T23:00:59.419Z,75.40
2018-08-25T23:03:28.672Z,76.02
2018-08-25T23:05:57.515Z,77.06
2018-08-25T23:08:26.427Z,77.27
2018-08-25T23:10:55.279Z,76.07
2018-08-25T23:13:24.366Z,76.37
2018-08-25T23:15:53.306Z,76.69
2018-08-25T23:18:22.200Z,78.21
2018-08-25T23:20:51.414Z,77.80
2018-08-25T23:23:20.353Z,76.87
2018-08-25T23:25:49.247Z,77.13
2018-08-25T23:28:18.151Z,76.36
2018-08-25T23:30:47.136Z,77.73
2018-08-25T23:33:16.152Z,78.66
2018-08-25T23:35:45.151Z,78.84
2018-08-25T23:38:14.048Z,77.48
2018-08-25T23:40:43.011Z,78.96
2018-08-25T23:43:11.948Z,78.88
2018-08-25T23:45:40.856Z,77.77
2018-08-25T23:48:09.750Z,78.07
2018-08-25T23:50:39.020Z,80.23
2018-08-25T23:53:07.925Z,80.80
2018-08-25T23:55:36.917Z,80.91
2018-08-25T23:58:05.873Z,80.64
